createdAt,value
2022-11-05T00:04:12.293Z,84.07
2022-11-05T00:08:34.294Z,83.99
2022-11-05T00:12:56.316Z,84.01
2022-11-05T00:16:59.723Z,84.10
2022-11-05T00:21:03.112Z,84.14
2022-11-05T00:25:18.929Z,84.08
2022-11-05T00:29:22.223Z,84.11
2022-11-05T00:33:25.579Z,84.11
2022-11-05T00:37:29.072Z,84.12
2022-11-05T00:41:32.383Z,84.14
2022-11-05T00:45:35.810Z,84.13
2022-11-05T00:49:39.130Z,84.11
2022-11-05T00:53:42.755Z,84.16
2022-11-05T00:57:46.111Z,84.22
2022-11-05T01:01:49.496Z,84.26
2022-11-05T01:05:56.716Z,84.24
2022-11-05T01:10:00.138Z,84.27
2022-11-05T01:14:12.142Z,84.28
2022-11-05T01:18:15.462Z,84.35
2022-11-05T01:22:18.744Z,84.38
2022-11-05T01:26:22.128Z,84.32
2022-11-05T01:30:25.492Z,84.28
2022-11-05T01:34:29.076Z,84.25
2022-11-05T01:38:32.392Z,84.42
2022-11-05T01:42:35.670Z,84.58
2022-11-05T01:46:46.356Z,84.53
2022-11-05T01:50:49.681Z,84.53
2022-11-05T01:54:53.450Z,84.65
2022-11-05T01:59:09.491Z,84.69
2022-11-05T02:03:15.124Z,84.79
2022-11-05T02:07:18.782Z,84.68
2022-11-05T02:11:22.225Z,84.72
2022-11-05T02:15:48.126Z,84.95
2022-11-05T02:20:19.380Z,84.87
2022-11-05T02:24:53.842Z,85.00
2022-11-05T02:29:38.107Z,85.06
2022-11-05T02:34:09.259Z,85.07
2022-11-05T02:38:25.410Z,85.16
2022-11-05T02:43:16.790Z,85.29
2022-11-05T02:47:44.953Z,85.35
2022-11-05T02:51:59.714Z,85.27
2022-11-05T02:56:09.404Z,85.37
2022-11-05T03:00:37.617Z,85.37
2022-11-05T03:04:41.332Z,85.42
2022-11-05T03:09:21.268Z,85.51
2022-11-05T03:13:32.434Z,85.53
2022-11-05T03:17:38.462Z,85.52
2022-11-05T03:21:56.558Z,85.53
2022-11-05T03:26:04.264Z,85.55
2022-11-05T03:30:11.280Z,85.63
2022-11-05T03:34:19.214Z,85.61
2022-11-05T03:38:28.307Z,85.62
2022-11-05T03:42:35.900Z,85.67
2022-11-05T03:46:45.662Z,85.62
2022-11-05T03:50:59.376Z,85.78
2022-11-05T03:55:02.828Z,85.77
2022-11-05T03:59:09.591Z,85.72
2022-11-05T04:03:13.257Z,85.77
2022-11-05T04:07:36.134Z,85.79
2022-11-05T04:11:58.039Z,85.86
2022-11-05T04:16:20.035Z,85.93
2022-11-05T04:20:42.029Z,85.99
2022-11-05T04:24:45.366Z,86.01
2022-11-05T04:29:08.310Z,85.95
2022-11-05T04:33:17.191Z,85.83
2022-11-05T04:37:20.555Z,85.96
2022-11-05T04:41:23.955Z,85.95
2022-11-05T04:45:29.812Z,86.08
2022-11-05T04:49:33.130Z,86.05
2022-11-05T04:53:36.409Z,86.01
2022-11-05T04:57:40.118Z,86.05
2022-11-05T05:01:43.530Z,86.11
2022-11-05T05:05:46.933Z,86.01
2022-11-05T05:09:50.424Z,85.99
2022-11-05T05:13:53.766Z,85.95
2022-11-05T05:17:57.057Z,85.93
2022-11-05T05:22:00.372Z,85.90
2022-11-05T05:26:03.758Z,86.01
2022-11-05T05:30:08.178Z,86.04
2022-11-05T05:34:13.487Z,86.13
2022-11-05T05:38:16.894Z,86.04
2022-11-05T05:42:21.603Z,86.14
2022-11-05T05:46:25.414Z,86.18
2022-11-05T05:50:28.838Z,86.36
2022-11-05T05:54:35.076Z,86.34
2022-11-05T05:58:41.777Z,86.36
2022-11-05T06:02:45.233Z,86.24
2022-11-05T06:06:48.866Z,86.32
2022-11-05T06:10:52.293Z,86.39
2022-11-05T06:14:55.939Z,86.47
2022-11-05T06:18:59.280Z,86.68
2022-11-05T06:23:02.636Z,86.68
2022-11-05T06:27:06.379Z,86.64
2022-11-05T06:31:11.350Z,86.58
2022-11-05T06:35:15.575Z,86.74
2022-11-05T06:39:19.219Z,86.90
2022-11-05T06:43:22.653Z,86.86
2022-11-05T06:47:25.994Z,86.90
2022-11-05T06:51:30.515Z,87.03
2022-11-05T06:55:33.812Z,87.23
2022-11-05T06:59:38.975Z,87.30
2022-11-05T07:03:42.335Z,87.38
2022-11-05T07:07:46.261Z,87.54
2022-11-05T07:11:51.348Z,87.58
2022-11-05T07:15:55.051Z,87.68
2022-11-05T07:19:58.301Z,87.83
2022-11-05T07:24:01.776Z,88.01
2022-11-05T07:28:06.299Z,88.05
2022-11-05T07:32:09.823Z,88.20
2022-11-05T07:36:13.814Z,88.20
2022-11-05T07:40:19.475Z,88.33
2022-11-05T07:44:22.930Z,88.32
2022-11-05T07:48:26.226Z,88.34
2022-11-05T07:52:33.928Z,88.48
2022-11-05T07:56:37.485Z,88.41
2022-11-05T08:00:41.158Z,88.53
2022-11-05T08:04:44.613Z,88.57
2022-11-05T08:08:48.035Z,88.55
2022-11-05T08:12:53.931Z,88.42
2022-11-05T08:17:00.294Z,88.42
2022-11-05T08:21:05.767Z,88.48
2022-11-05T08:25:09.414Z,88.69
2022-11-05T08:29:12.929Z,88.57
2022-11-05T08:33:16.494Z,88.40
2022-11-05T08:37:22.504Z,88.33
2022-11-05T08:41:25.963Z,88.41
2022-11-05T08:45:30.220Z,88.63
2022-11-05T08:49:33.793Z,88.78
2022-11-05T08:53:37.266Z,88.63
2022-11-05T08:57:40.743Z,88.58
2022-11-05T09:01:44.249Z,88.49
2022-11-05T09:05:47.693Z,88.58
2022-11-05T09:09:51.048Z,88.60
2022-11-05T09:13:54.499Z,88.67
2022-11-05T09:17:58.059Z,88.35
2022-11-05T09:22:01.400Z,88.28
2022-11-05T09:26:05.251Z,88.58
2022-11-05T09:30:11.081Z,88.52
2022-11-05T09:34:14.434Z,88.57
2022-11-05T09:38:18.531Z,88.57
2022-11-05T09:42:26.491Z,88.67
2022-11-05T09:46:54.107Z,88.58
2022-11-05T09:50:58.631Z,88.37
2022-11-05T09:55:07.914Z,88.42
2022-11-05T09:59:21.030Z,88.50
2022-11-05T10:03:26.606Z,88.52
2022-11-05T10:07:35.630Z,88.15
2022-11-05T10:11:48.359Z,87.97
2022-11-05T10:16:20.998Z,87.97
2022-11-05T10:20:39.333Z,88.00
2022-11-05T10:24:47.352Z,88.11
2022-11-05T10:28:51.701Z,88.31
2022-11-05T10:33:00.573Z,88.25
2022-11-05T10:37:05.135Z,88.19
2022-11-05T10:41:25.442Z,88.23
2022-11-05T10:45:48.088Z,88.30
2022-11-05T10:50:03.285Z,88.38
2022-11-05T10:54:15.784Z,88.65
2022-11-05T10:58:27.733Z,88.98
2022-11-05T11:02:31.199Z,88.98
2022-11-05T11:06:39.373Z,88.87
2022-11-05T11:10:52.501Z,89.11
2022-11-05T11:15:13.131Z,89.33
2022-11-05T11:19:28.687Z,89.25
2022-11-05T11:23:38.817Z,89.09
2022-11-05T11:27:42.240Z,89.30
2022-11-05T11:31:46.170Z,89.51
2022-11-05T11:35:50.077Z,89.45
2022-11-05T11:40:02.656Z,89.35
2022-11-05T11:44:24.168Z,89.53
2022-11-05T11:48:34.652Z,89.67
2022-11-05T11:52:39.774Z,89.70
2022-11-05T11:56:45.935Z,89.91
2022-11-05T12:01:02.935Z,89.78
2022-11-05T12:05:31.269Z,89.88
2022-11-05T12:09:48.454Z,89.72
2022-11-05T12:14:04.508Z,89.90
2022-11-05T12:18:41.062Z,90.05
2022-11-05T12:22:53.578Z,90.27
2022-11-05T12:27:15.972Z,90.37
2022-11-05T12:32:14.233Z,90.24
2022-11-05T12:36:23.071Z,90.22
2022-11-05T12:40:41.424Z,90.30
2022-11-05T12:45:20.277Z,90.47
2022-11-05T12:49:39.581Z,90.48
2022-11-05T12:54:11.001Z,90.32
2022-11-05T12:58:25.476Z,90.40
2022-11-05T13:03:24.248Z,90.51
2022-11-05T13:07:37.884Z,90.71
2022-11-05T13:11:51.190Z,90.56
2022-11-05T13:16:02.622Z,90.76
2022-11-05T13:20:17.333Z,90.60
2022-11-05T13:24:27.135Z,90.51
2022-11-05T13:28:49.934Z,90.45
2022-11-05T13:33:02.187Z,90.63
2022-11-05T13:37:26.146Z,90.73
2022-11-05T13:41:55.099Z,90.92
2022-11-05T13:46:13.177Z,91.18
2022-11-05T13:50:23.032Z,90.98
2022-11-05T13:54:29.470Z,91.24
2022-11-05T13:58:38.765Z,91.33
2022-11-05T14:02:47.510Z,91.25
2022-11-05T14:06:51.143Z,91.32
2022-11-05T14:11:41.699Z,91.32
2022-11-05T14:16:02.662Z,91.49
2022-11-05T14:20:23.319Z,91.70
2022-11-05T14:24:47.535Z,91.77
2022-11-05T14:29:13.303Z,91.74
2022-11-05T14:33:39.945Z,91.56
2022-11-05T14:37:57.485Z,91.62
2022-11-05T14:42:13.351Z,91.78
2022-11-05T14:46:17.009Z,91.76
2022-11-05T14:50:27.356Z,91.45
2022-11-05T14:54:48.261Z,91.27
2022-11-05T14:59:31.736Z,91.52
2022-11-05T15:03:45.926Z,91.64
2022-11-05T15:07:57.757Z,91.77
2022-11-05T15:12:09.345Z,91.89
2022-11-05T15:16:21.144Z,91.84
2022-11-05T15:20:37.274Z,91.84
2022-11-05T15:24:43.554Z,91.84
2022-11-05T15:28:49.345Z,92.11
2022-11-05T15:32:52.817Z,92.29
2022-11-05T15:37:01.710Z,92.21
2022-11-05T15:41:14.811Z,92.23
2022-11-05T15:45:21.215Z,92.13
2022-11-05T15:49:24.514Z,92.33
2022-11-05T15:54:28.606Z,92.64
2022-11-05T15:58:18.328Z,92.42
2022-11-05T16:02:24.743Z,92.34
2022-11-05T16:06:37.502Z,92.46
2022-11-05T16:10:48.195Z,92.54
2022-11-05T16:15:00.793Z,92.46
2022-11-05T16:19:40.557Z,92.31
2022-11-05T16:23:50.141Z,92.42
2022-11-05T16:27:53.638Z,92.60
2022-11-05T16:31:58.971Z,92.75
2022-11-05T16:36:02.499Z,92.60
2022-11-05T16:40:18.489Z,92.31
2022-11-05T16:44:21.879Z,92.10
2022-11-05T16:48:26.188Z,92.12
2022-11-05T16:52:29.786Z,91.95
2022-11-05T16:56:33.718Z,91.83
2022-11-05T17:00:37.134Z,91.78
2022-11-05T17:04:40.426Z,91.71
2022-11-05T17:08:46.998Z,92.18
2022-11-05T17:12:51.375Z,92.42
2022-11-05T17:16:54.886Z,92.67
2022-11-05T17:20:58.312Z,92.75
2022-11-05T17:25:01.854Z,92.51
2022-11-05T17:29:05.370Z,92.06
2022-11-05T17:33:09.429Z,91.55
2022-11-05T17:37:12.995Z,91.50
2022-11-05T17:41:18.960Z,91.67
2022-11-05T17:45:22.391Z,92.02
2022-11-05T17:49:25.670Z,92.61
2022-11-05T17:53:29.092Z,92.84
2022-11-05T17:57:32.504Z,92.47
2022-11-05T18:01:37.568Z,92.13
2022-11-05T18:05:42.162Z,92.06
2022-11-05T18:09:45.775Z,92.04
2022-11-05T18:13:49.065Z,92.08
2022-11-05T18:17:52.335Z,92.37
2022-11-05T18:21:56.017Z,92.87
2022-11-05T18:25:59.474Z,92.88
2022-11-05T18:30:04.610Z,92.88
2022-11-05T18:34:10.524Z,93.07
2022-11-05T18:38:14.005Z,92.80
2022-11-05T18:42:18.172Z,92.51
2022-11-05T18:46:51.017Z,93.02
2022-11-05T18:50:44.875Z,92.91
2022-11-05T18:54:48.222Z,92.84
2022-11-05T18:59:14.775Z,92.80
2022-11-05T19:03:17.545Z,92.99
2022-11-05T19:07:24.460Z,93.30
2022-11-05T19:11:27.903Z,93.16
2022-11-05T19:15:31.318Z,93.48
2022-11-05T19:19:34.883Z,93.63
2022-11-05T19:23:39.662Z,93.89
2022-11-05T19:27:44.313Z,93.67
2022-11-05T19:31:47.839Z,93.75
2022-11-05T19:35:51.215Z,93.70
2022-11-05T19:39:54.611Z,93.79
2022-11-05T19:43:59.075Z,93.69
2022-11-05T19:48:02.487Z,93.34
2022-11-05T19:52:07.020Z,93.42
2022-11-05T19:56:15.034Z,93.58
2022-11-05T20:00:18.439Z,93.31
2022-11-05T20:04:21.835Z,93.01
2022-11-05T20:08:25.149Z,93.43
2022-11-05T20:12:28.405Z,93.69
2022-11-05T20:16:40.643Z,93.68
2022-11-05T20:20:45.045Z,93.45
2022-11-05T20:24:48.499Z,93.58
2022-11-05T20:28:52.317Z,93.50
2022-11-05T20:32:56.910Z,93.58
2022-11-05T20:37:00.457Z,92.97
2022-11-05T20:41:12.878Z,93.00
2022-11-05T20:45:16.284Z,93.23
2022-11-05T20:49:24.159Z,93.51
2022-11-05T20:53:28.778Z,94.01
2022-11-05T20:57:32.194Z,94.16
2022-11-05T21:01:35.719Z,94.46
2022-11-05T21:05:39.238Z,94.68
2022-11-05T21:09:42.648Z,94.82
2022-11-05T21:13:46.412Z,95.18
2022-11-05T21:17:50.807Z,95.65
2022-11-05T21:21:54.124Z,95.88
2022-11-05T21:25:57.440Z,96.06
2022-11-05T21:30:00.755Z,96.12
2022-11-05T21:34:04.464Z,96.38
2022-11-05T21:38:07.965Z,96.53
2022-11-05T21:42:11.323Z,96.60
2022-11-05T21:46:14.632Z,96.62
2022-11-05T21:50:21.791Z,96.67
2022-11-05T21:54:44.073Z,96.81
2022-11-05T21:59:06.132Z,97.11
2022-11-05T22:03:09.463Z,97.16
2022-11-05T22:07:15.698Z,97.19
2022-11-05T22:11:19.728Z,97.13
2022-11-05T22:15:23.021Z,97.14
2022-11-05T22:19:26.707Z,97.07
2022-11-05T22:23:30.003Z,97.34
2022-11-05T22:27:33.316Z,97.20
2022-11-05T22:31:36.998Z,97.32
2022-11-05T22:35:40.451Z,97.44
2022-11-05T22:39:43.965Z,97.47
2022-11-05T22:43:47.750Z,97.59
2022-11-05T22:47:51.098Z,97.67
2022-11-05T22:51:54.428Z,97.70
2022-11-05T22:55:58.581Z,97.66
2022-11-05T23:00:02.113Z,97.68
2022-11-05T23:04:05.626Z,97.77
2022-11-05T23:08:28.603Z,97.76
2022-11-05T23:12:34.956Z,97.87
2022-11-05T23:16:57.394Z,97.52
2022-11-05T23:21:22.985Z,97.65
2022-11-05T23:25:26.746Z,97.70
2022-11-05T23:29:30.581Z,97.79
2022-11-05T23:33:35.219Z,97.59
2022-11-05T23:37:57.322Z,97.89
2022-11-05T23:42:19.192Z,97.74
2022-11-05T23:46:41.081Z,98.12
2022-11-05T23:51:04.075Z,98.18
2022-11-05T23:55:07.851Z,97.57
2022-11-05T23:59:11.606Z,97.58
